Time;durP1;ratioP1;P1;durP2;ratioP2;P2;SDS_P1;SDS_P2;PMS_P1;PMS_P2;Temp;Humidity;BMP_temperature;BMP_pressure;BME280_temperature;BME280_humidity;BME280_pressure;Samples;Min_cycle;Max_cycle;Signal;HPM_P1;HPM_P2
2022/09/06 00:00:09;;;;;;;4.13;1.55;;;;;;;9.53;70.37;99702.88;5057658;28;20060;-74
2022/09/06 00:02:37;;;;;;;4.20;2.08;;;;;;;9.52;70.51;99699.34;5056744;28;20448;-75
2022/09/06 00:05:03;;;;;;;5.95;2.25;;;;;;;9.49;70.22;99704.88;5038287;28;20075;-71
2022/09/06 00:07:28;;;;;;;2.20;2.00;;;;;;;9.51;70.39;99699.44;5038867;28;20043;-65
2022/09/06 00:09:55;;;;;;;3.55;1.70;;;;;;;9.52;70.49;99703.81;5038272;28;20069;-66
2022/09/06 00:12:20;;;;;;;2.03;1.83;;;;;;;9.51;70.03;99702.97;5037183;28;20097;-65
2022/09/06 00:14:44;;;;;;;3.00;2.33;;;;;;;9.52;69.78;99703.81;5023192;28;20043;-68
2022/09/06 00:17:09;;;;;;;6.63;2.30;;;;;;;9.48;70.03;99699.69;5055519;28;20061;-70
2022/09/06 00:19:34;;;;;;;1.55;1.45;;;;;;;9.46;70.51;99705.09;5036872;28;20100;-73
2022/09/06 00:21:59;;;;;;;1.80;1.70;;;;;;;9.46;70.04;99697.97;5021220;28;20396;-68
2022/09/06 00:24:23;;;;;;;2.17;1.98;;;;;;;9.43;70.32;99702.63;5055487;28;20052;-69
2022/09/06 00:26:48;;;;;;;2.70;2.00;;;;;;;9.38;70.37;99699.41;5036648;28;20712;-69
2022/09/06 00:29:13;;;;;;;3.95;2.10;;;;;;;9.36;70.37;99698.69;5055124;28;20074;-70
2022/09/06 00:31:38;;;;;;;2.03;1.63;;;;;;;9.35;70.61;99692.50;5043120;28;20051;-69
2022/09/06 00:34:02;;;;;;;2.53;1.88;;;;;;;9.38;70.62;99692.28;5043838;28;20074;-72
2022/09/06 00:36:27;;;;;;;3.85;2.40;;;;;;;9.41;70.65;99697.41;5024433;28;20067;-70
2022/09/06 00:38:52;;;;;;;7.88;2.15;;;;;;;9.47;70.29;99696.16;5054625;28;20046;-72
2022/09/06 00:41:17;;;;;;;3.25;2.05;;;;;;;9.52;70.26;99701.16;5054765;28;20043;-72
2022/09/06 00:43:42;;;;;;;3.28;1.85;;;;;;;9.54;70.25;99704.59;5019855;28;20051;-74
2022/09/06 00:46:10;;;;;;;4.25;2.72;;;;;;;9.58;69.78;99704.28;5054535;28;20090;-72
2022/09/06 00:48:38;;;;;;;4.05;2.47;;;;;;;9.58;69.93;99706.94;5037130;28;20451;-71
2022/09/06 00:51:06;;;;;;;2.17;1.83;;;;;;;9.59;69.59;99710.47;5054438;28;20044;-72
2022/09/06 00:53:31;;;;;;;1.88;1.73;;;;;;;9.56;69.58;99705.34;5036489;28;20076;-68
2022/09/06 00:55:57;;;;;;;2.22;1.60;;;;;;;9.57;69.44;99701.72;5036700;28;20058;-70
2022/09/06 00:58:23;;;;;;;4.50;1.55;;;;;;;9.58;69.42;99698.13;5054693;28;20047;-71
2022/09/06 01:00:49;;;;;;;3.03;2.08;;;;;;;9.58;69.27;99706.94;5055002;28;20054;-73
2022/09/06 01:03:14;;;;;;;2.88;1.98;;;;;;;9.58;69.24;99690.97;5054684;28;20470;-69
2022/09/06 01:06:04;;;;;;;2.50;2.17;;;;;;;9.61;69.36;99692.56;5036193;28;20533;-69
2022/09/06 01:09:03;;;;;;;1.75;1.65;;;;;;;9.61;69.55;99696.06;5034527;28;20052;-73
2022/09/06 01:11:40;;;;;;;3.28;2.47;;;;;;;9.48;69.45;99690.72;5021646;28;20160;-69
2022/09/06 01:14:29;;;;;;;4.22;2.58;;;;;;;9.43;69.50;99698.16;4995875;28;20075;-69
2022/09/06 01:17:05;;;;;;;2.25;2.05;;;;;;;9.36;69.61;99698.69;5016144;28;20095;-71
2022/09/06 01:19:55;;;;;;;1.88;1.50;;;;;;;9.32;69.68;99699.81;4999023;28;20088;-72
2022/09/06 01:22:56;;;;;;;3.30;1.90;;;;;;;9.30;69.73;99694.59;5015293;28;20044;-71
2022/09/06 01:25:42;;;;;;;2.42;2.22;;;;;;;9.31;69.76;99695.44;4988950;28;20049;-71
2022/09/06 01:28:19;;;;;;;1.80;1.42;;;;;;;9.38;69.47;99696.75;4996994;28;20080;-70
2022/09/06 01:30:52;;;;;;;2.03;1.83;;;;;;;9.36;69.46;99696.00;5013896;28;20045;-70
2022/09/06 01:34:02;;;;;;;2.78;2.33;;;;;;;9.40;69.42;99705.47;5030411;28;20036;-72
2022/09/06 01:36:35;;;;;;;4.93;2.22;;;;;;;9.38;69.30;99710.03;4963667;28;20046;-73
2022/09/06 01:39:01;;;;;;;2.75;2.00;;;;;;;9.37;69.28;99708.34;4963465;28;20037;-73
2022/09/06 01:41:26;;;;;;;6.25;2.30;;;;;;;9.38;69.22;99702.06;4944381;28;20102;-71
2022/09/06 01:43:52;;;;;;;5.35;1.95;;;;;;;9.40;69.00;99702.81;4918937;29;20043;-73
2022/09/06 01:46:32;;;;;;;1.73;1.63;;;;;;;9.43;68.89;99698.16;4902772;29;20487;-77
2022/09/06 01:49:01;;;;;;;2.05;1.80;;;;;;;9.43;68.81;99695.50;4950990;28;20052;-73
2022/09/06 01:51:45;;;;;;;3.78;2.22;;;;;;;9.50;69.05;99709.25;4940720;28;20053;-75
2022/09/06 01:54:27;;;;;;;1.60;1.50;;;;;;;9.51;68.95;99707.44;4956940;28;20101;-75
2022/09/06 01:57:35;;;;;;;2.35;2.15;;;;;;;9.57;68.79;99701.72;4956673;28;20042;-78
2022/09/06 02:00:08;;;;;;;4.00;2.03;;;;;;;9.57;68.78;99707.06;4916414;28;20051;-76
2022/09/06 02:02:41;;;;;;;3.05;2.15;;;;;;;9.51;68.90;99700.31;4919191;28;20047;-77
2022/09/06 02:05:20;;;;;;;2.65;2.03;;;;;;;9.52;68.33;99702.03;4918955;28;20132;-77
2022/09/06 02:07:48;;;;;;;2.25;1.85;;;;;;;9.41;68.25;99694.75;4918994;28;20055;-76
2022/09/06 02:10:20;;;;;;;5.78;2.38;;;;;;;9.40;68.52;99700.16;4923143;28;20077;-77
2022/09/06 02:12:51;;;;;;;3.78;2.65;;;;;;;9.38;68.59;99708.25;4937176;28;20140;-76
2022/09/06 02:15:22;;;;;;;3.90;2.45;;;;;;;9.38;68.59;99713.56;5017637;28;20040;-77
2022/09/06 02:17:56;;;;;;;5.38;2.58;;;;;;;9.36;68.42;99704.84;5019701;28;20120;-77
2022/09/06 02:20:25;;;;;;;4.13;2.55;;;;;;;9.35;67.89;99707.59;5003567;28;20377;-77
2022/09/06 02:22:55;;;;;;;2.83;2.47;;;;;;;9.32;68.28;99713.97;5037441;28;20052;-79
2022/09/06 02:25:25;;;;;;;4.13;2.30;;;;;;;9.30;68.39;99712.38;5020224;28;20048;-76
2022/09/06 02:27:50;;;;;;;2.45;2.25;;;;;;;9.25;68.29;99712.69;5018364;28;20055;-75
2022/09/06 02:30:15;;;;;;;4.68;2.50;;;;;;;9.21;68.34;99713.81;5019590;28;20032;-74
2022/09/06 02:32:47;;;;;;;3.40;3.05;;;;;;;9.23;68.91;99719.03;5037599;28;20049;-76
2022/09/06 02:35:14;;;;;;;2.28;2.08;;;;;;;9.22;69.15;99710.22;5038622;28;20036;-80
2022/09/06 02:37:40;;;;;;;2.05;1.85;;;;;;;9.23;69.16;99716.38;5022595;28;20127;-81
2022/09/06 02:40:09;;;;;;;4.00;2.55;;;;;;;9.24;69.09;99712.78;5004170;28;20039;-74
2022/09/06 02:42:35;;;;;;;2.90;2.55;;;;;;;9.24;69.17;99713.63;5038349;28;20037;-75
2022/09/06 02:45:00;;;;;;;5.35;3.15;;;;;;;9.24;68.58;99724.28;5047938;28;20021;-72
2022/09/06 02:47:25;;;;;;;5.93;3.10;;;;;;;9.26;68.63;99721.47;5041081;28;20048;-74
2022/09/06 02:49:49;;;;;;;5.72;3.15;;;;;;;9.23;68.59;99716.38;5055219;28;20071;-74
2022/09/06 02:52:14;;;;;;;4.60;3.05;;;;;;;9.23;68.70;99725.22;5054106;28;20059;-73
2022/09/06 02:54:39;;;;;;;6.10;3.55;;;;;;;9.24;68.42;99721.63;5025611;28;20622;-75
2022/09/06 02:57:04;;;;;;;4.90;2.97;;;;;;;9.27;68.85;99731.19;5040524;28;20131;-77
2022/09/06 02:59:28;;;;;;;4.45;3.50;;;;;;;9.28;68.54;99717.78;5048432;28;20059;-75
2022/09/06 03:01:53;;;;;;;9.38;6.75;;;;;;;9.30;68.65;99720.34;5069296;28;20043;-74
2022/09/06 03:04:18;;;;;;;9.73;6.28;;;;;;;9.30;68.65;99715.03;5039908;28;20093;-71
2022/09/06 03:06:43;;;;;;;11.63;8.10;;;;;;;9.27;68.36;99715.22;5036292;28;20059;-71
2022/09/06 03:09:09;;;;;;;14.60;9.35;;;;;;;9.22;68.31;99712.88;5058462;28;20072;-81
2022/09/06 03:11:34;;;;;;;13.18;8.32;;;;;;;9.16;68.43;99723.88;5040867;28;20040;-79
2022/09/06 03:13:59;;;;;;;12.27;7.55;;;;;;;9.18;68.70;99715.81;5057976;28;20047;-78
2022/09/06 03:16:24;;;;;;;10.25;6.95;;;;;;;9.22;68.71;99725.31;5041140;28;20051;-79
2022/09/06 03:18:49;;;;;;;8.85;6.40;;;;;;;9.24;68.50;99720.75;5021586;28;20043;-74
2022/09/06 03:21:14;;;;;;;9.50;5.78;;;;;;;9.25;68.47;99728.66;5030784;28;20513;-79
2022/09/06 03:23:39;;;;;;;4.97;3.58;;;;;;;9.29;68.53;99721.28;5018467;28;20045;-73
2022/09/06 03:26:05;;;;;;;6.43;3.72;;;;;;;9.32;68.48;99723.75;5036183;28;20047;-69
2022/09/06 03:28:30;;;;;;;3.70;3.08;;;;;;;9.32;68.14;99724.63;5036549;28;20044;-71
2022/09/06 03:30:55;;;;;;;6.10;3.45;;;;;;;9.33;68.14;99721.00;5035771;28;20040;-70
2022/09/06 03:33:20;;;;;;;7.40;3.67;;;;;;;9.36;68.61;99726.13;5034370;28;20492;-71
2022/09/06 03:35:50;;;;;;;8.32;5.32;;;;;;;9.43;68.24;99726.56;5001432;28;20045;-71
2022/09/06 03:38:16;;;;;;;10.02;6.88;;;;;;;9.42;67.92;99722.22;5000614;28;20033;-71
2022/09/06 03:40:44;;;;;;;9.80;7.20;;;;;;;9.46;68.22;99734.38;5036186;28;20123;-72
2022/09/06 03:43:09;;;;;;;7.25;4.65;;;;;;;9.49;67.93;99726.16;5018739;28;20041;-72
2022/09/06 03:45:33;;;;;;;6.93;5.32;;;;;;;9.50;67.83;99730.53;5018104;28;20056;-72
2022/09/06 03:47:58;;;;;;;7.38;4.38;;;;;;;9.52;68.05;99736.63;5001321;28;20048;-72
2022/09/06 03:50:23;;;;;;;6.45;4.75;;;;;;;9.52;67.82;99733.94;5036368;28;20040;-72
2022/09/06 03:52:47;;;;;;;8.88;3.92;;;;;;;9.55;68.13;99739.09;5018011;28;20044;-71
2022/09/06 03:55:12;;;;;;;19.70;4.25;;;;;;;9.58;67.52;99735.38;5018376;28;20243;-71
2022/09/06 03:57:37;;;;;;;5.63;3.35;;;;;;;9.59;67.88;99739.75;5001143;28;20055;-71
2022/09/06 04:00:03;;;;;;;6.07;3.17;;;;;;;9.60;67.61;99734.28;5035512;28;20120;-65
2022/09/06 04:02:36;;;;;;;4.07;2.80;;;;;;;9.65;67.93;99734.84;5035458;28;20048;-65
2022/09/06 04:05:01;;;;;;;6.20;3.58;;;;;;;9.69;67.67;99741.69;5017348;28;20055;-64
2022/09/06 04:07:25;;;;;;;8.05;3.20;;;;;;;9.72;67.18;99741.47;5034972;28;20491;-65
2022/09/06 04:09:50;;;;;;;9.10;2.58;;;;;;;9.79;67.04;99741.94;5034988;28;20060;-64
2022/09/06 04:12:15;;;;;;;4.05;2.63;;;;;;;9.81;67.07;99743.53;5035859;28;20048;-66
2022/09/06 04:14:39;;;;;;;11.77;2.90;;;;;;;9.82;66.79;99750.53;5033974;28;20036;-64
2022/09/06 04:17:04;;;;;;;8.00;4.18;;;;;;;9.83;66.72;99738.94;5033597;28;20044;-66
2022/09/06 04:19:29;;;;;;;4.35;2.67;;;;;;;9.84;66.83;99735.31;5035374;28;20044;-63
2022/09/06 04:21:54;;;;;;;4.43;2.72;;;;;;;9.88;66.87;99743.13;5046698;28;20044;-64
2022/09/06 04:24:19;;;;;;;6.47;3.55;;;;;;;9.90;66.52;99743.88;5055279;28;20506;-64
2022/09/06 04:26:43;;;;;;;4.22;2.95;;;;;;;9.91;66.19;99741.13;5036349;28;20044;-64
2022/09/06 04:29:08;;;;;;;6.20;3.28;;;;;;;9.92;65.79;99734.84;5054065;28;20447;-65
2022/09/06 04:31:33;;;;;;;9.82;6.03;;;;;;;9.95;66.39;99739.06;5020033;28;20047;-64
2022/09/06 04:33:58;;;;;;;13.30;5.85;;;;;;;9.95;66.00;99737.28;5037092;28;20046;-65
2022/09/06 04:36:22;;;;;;;12.77;7.57;;;;;;;9.97;66.16;99745.16;5036843;28;20047;-72
2022/09/06 04:38:47;;;;;;;11.45;7.22;;;;;;;9.97;66.11;99738.03;5037399;28;20542;-72
2022/09/06 04:41:15;;;;;;;15.77;6.63;;;;;;;9.98;65.78;99736.22;5037369;28;20047;-73
2022/09/06 04:43:40;;;;;;;8.93;5.35;;;;;;;9.95;65.25;99737.28;5037473;28;20063;-72
2022/09/06 04:46:16;;;;;;;10.02;4.18;;;;;;;10.01;65.60;99744.00;5060823;28;20076;-73
2022/09/06 04:48:41;;;;;;;10.00;4.50;;;;;;;9.97;65.53;99743.34;5029884;28;20090;-73
2022/09/06 04:51:06;;;;;;;11.23;3.17;;;;;;;9.99;65.28;99740.59;5054959;28;20071;-73
2022/09/06 04:53:30;;;;;;;4.22;3.30;;;;;;;9.92;65.20;99739.31;5023647;28;20048;-71
2022/09/06 04:55:57;;;;;;;5.10;3.28;;;;;;;9.89;65.27;99743.03;5043381;28;20050;-72
2022/09/06 04:58:21;;;;;;;4.78;3.22;;;;;;;9.89;65.10;99740.34;5039470;28;20097;-71
2022/09/06 05:00:46;;;;;;;2.88;2.00;;;;;;;9.90;65.04;99736.75;5021510;28;20089;-72
2022/09/06 05:03:11;;;;;;;2.65;2.05;;;;;;;9.95;64.67;99741.75;5020309;28;20132;-73
2022/09/06 05:05:36;;;;;;;8.27;2.70;;;;;;;10.03;64.61;99750.94;5036431;28;20126;-73
2022/09/06 05:08:01;;;;;;;2.95;2.28;;;;;;;10.07;64.61;99738.25;5035987;28;20067;-66
2022/09/06 05:10:26;;;;;;;6.15;2.78;;;;;;;10.09;64.48;99744.34;5054181;28;20044;-66
2022/09/06 05:12:52;;;;;;;3.40;2.47;;;;;;;10.14;64.60;99748.41;5037200;28;20108;-66
2022/09/06 05:15:18;;;;;;;5.13;2.67;;;;;;;10.22;65.20;99739.06;5037041;28;20036;-66
2022/09/06 05:17:46;;;;;;;6.03;3.05;;;;;;;10.30;64.63;99742.91;5036673;28;20460;-66
2022/09/06 05:20:11;;;;;;;7.88;3.67;;;;;;;10.34;64.17;99731.09;5036327;28;20147;-64
2022/09/06 05:22:36;;;;;;;4.63;4.07;;;;;;;10.36;64.52;99731.84;5036565;28;20067;-64
2022/09/06 05:25:01;;;;;;;9.27;3.53;;;;;;;10.42;64.16;99727.88;5054282;28;20048;-66
2022/09/06 05:27:28;;;;;;;3.03;2.80;;;;;;;10.46;63.82;99740.91;5054376;28;20491;-66
2022/09/06 05:29:53;;;;;;;4.25;2.90;;;;;;;10.43;63.60;99733.09;5053708;28;20489;-64
2022/09/06 05:32:17;;;;;;;3.70;2.58;;;;;;;10.41;63.51;99737.69;5035883;28;20097;-64
2022/09/06 05:34:42;;;;;;;4.95;2.95;;;;;;;10.41;63.66;99729.69;5035923;28;20066;-63
2022/09/06 05:37:07;;;;;;;3.35;2.47;;;;;;;10.42;63.81;99731.41;5035821;28;20044;-64
2022/09/06 05:39:32;;;;;;;9.40;2.97;;;;;;;10.45;63.59;99733.84;5019071;28;20452;-63
2022/09/06 05:41:57;;;;;;;3.60;2.38;;;;;;;10.50;63.18;99737.03;5036139;28;20060;-63
2022/09/06 05:44:22;;;;;;;6.40;1.88;;;;;;;10.55;62.72;99740.25;5036197;28;20047;-65
2022/09/06 05:46:47;;;;;;;2.28;1.98;;;;;;;10.59;62.29;99735.56;5019484;28;20044;-64
2022/09/06 05:49:12;;;;;;;2.70;1.90;;;;;;;10.60;62.07;99736.41;5036386;28;20450;-65
2022/09/06 05:51:38;;;;;;;2.03;1.77;;;;;;;10.59;61.54;99740.91;5019463;28;20059;-65
2022/09/06 05:54:03;;;;;;;2.22;1.80;;;;;;;10.58;61.96;99733.00;5035604;28;20063;-66
2022/09/06 05:56:28;;;;;;;4.93;2.20;;;;;;;10.54;61.08;99733.22;5035334;28;20132;-65
2022/09/06 05:58:53;;;;;;;1.65;1.20;;;;;;;10.48;61.20;99727.47;5053940;28;20083;-64
2022/09/06 06:01:22;;;;;;;4.07;1.70;;;;;;;10.41;60.64;99740.34;5053693;28;20078;-66
2022/09/06 06:04:06;;;;;;;5.60;2.00;;;;;;;10.44;61.77;99739.28;5039361;28;20039;-65
2022/09/06 06:06:33;;;;;;;2.42;1.60;;;;;;;10.31;61.85;99739.28;5057534;28;20639;-65
2022/09/06 06:08:58;;;;;;;1.65;1.55;;;;;;;10.27;61.47;99745.75;5023166;28;20453;-65
2022/09/06 06:11:24;;;;;;;2.13;1.63;;;;;;;10.28;61.44;99744.81;5039518;28;20050;-67
2022/09/06 06:13:51;;;;;;;11.18;2.60;;;;;;;10.32;62.13;99743.66;5022888;28;20081;-65
2022/09/06 06:16:18;;;;;;;5.88;2.35;;;;;;;10.35;61.92;99738.13;5022470;28;20044;-64
2022/09/06 06:18:43;;;;;;;6.82;2.22;;;;;;;10.43;61.66;99748.25;5039348;28;20039;-66
2022/09/06 06:21:08;;;;;;;5.10;2.03;;;;;;;10.49;61.99;99755.81;5039170;28;20115;-66
2022/09/06 06:23:33;;;;;;;3.55;2.42;;;;;;;10.50;61.00;99747.69;5058131;28;20040;-66
2022/09/06 06:25:58;;;;;;;3.05;2.28;;;;;;;10.54;60.56;99743.88;5039831;28;20453;-66
2022/09/06 06:28:23;;;;;;;4.03;2.47;;;;;;;10.63;60.66;99737.03;5060897;28;20040;-65
2022/09/06 06:30:48;;;;;;;3.25;2.08;;;;;;;10.82;60.16;99747.28;5059491;28;20070;-70
2022/09/06 06:33:13;;;;;;;6.72;2.22;;;;;;;11.03;60.30;99744.88;5025381;28;20466;-71
2022/09/06 06:35:38;;;;;;;5.32;2.38;;;;;;;11.26;59.22;99742.28;5041089;28;20098;-64
2022/09/06 06:38:03;;;;;;;5.68;2.30;;;;;;;11.42;58.67;99741.97;5060378;28;20066;-64
2022/09/06 06:40:29;;;;;;;4.50;2.53;;;;;;;11.51;57.56;99737.81;5024465;28;20047;-64
2022/09/06 06:42:54;;;;;;;3.45;2.53;;;;;;;11.52;57.94;99742.16;5039705;28;20043;-66
2022/09/06 06:45:20;;;;;;;2.78;2.33;;;;;;;11.54;57.78;99738.41;5019041;28;20055;-66
2022/09/06 06:47:48;;;;;;;3.15;2.45;;;;;;;11.63;57.76;99734.19;5036890;28;20119;-65
2022/09/06 06:50:14;;;;;;;5.55;2.50;;;;;;;11.70;57.71;99730.13;5024900;28;20608;-65
2022/09/06 06:52:38;;;;;;;7.90;2.75;;;;;;;11.83;56.14;99733.63;4996684;28;20060;-65
2022/09/06 06:55:04;;;;;;;4.20;2.67;;;;;;;11.82;56.05;99731.91;5020890;28;20212;-66
2022/09/06 06:57:29;;;;;;;3.47;2.65;;;;;;;11.74;55.80;99734.25;5052604;28;20062;-64
2022/09/06 06:59:54;;;;;;;10.90;3.33;;;;;;;11.62;57.05;99738.69;5057326;28;20131;-64
2022/09/06 07:02:19;;;;;;;3.70;2.90;;;;;;;11.59;57.41;99741.63;5038869;28;20498;-67
2022/09/06 07:04:43;;;;;;;8.73;3.33;;;;;;;11.69;57.21;99744.44;5021736;28;20051;-65
2022/09/06 07:07:08;;;;;;;5.82;3.10;;;;;;;11.84;56.67;99731.81;5037976;28;20055;-65
2022/09/06 07:09:35;;;;;;;5.97;3.30;;;;;;;11.94;56.61;99735.47;5038564;28;20101;-65
2022/09/06 07:12:00;;;;;;;8.43;3.15;;;;;;;12.07;56.64;99732.75;5056268;28;20052;-68
2022/09/06 07:14:25;;;;;;;3.60;2.60;;;;;;;12.20;55.60;99733.47;5056304;28;20047;-67
2022/09/06 07:16:54;;;;;;;7.93;3.40;;;;;;;12.41;55.66;99729.19;5056228;28;20044;-64
2022/09/06 07:19:19;;;;;;;7.13;3.45;;;;;;;12.64;54.63;99728.19;5056379;28;20097;-65
2022/09/06 07:21:44;;;;;;;6.45;3.53;;;;;;;12.75;54.10;99722.03;5056155;28;20044;-64
2022/09/06 07:24:09;;;;;;;8.05;2.97;;;;;;;12.80;53.36;99721.66;5038394;28;20093;-64
2022/09/06 07:26:35;;;;;;;7.90;3.13;;;;;;;12.77;53.33;99732.59;5056103;28;20051;-65
2022/09/06 07:29:01;;;;;;;6.40;3.65;;;;;;;12.63;53.40;99726.53;5038101;28;20043;-65
2022/09/06 07:31:27;;;;;;;2.60;1.95;;;;;;;12.51;53.68;99724.81;5004394;28;20139;-65
2022/09/06 07:33:52;;;;;;;5.20;2.70;;;;;;;12.41;53.96;99720.31;5055531;28;20096;-64
2022/09/06 07:36:17;;;;;;;5.45;2.92;;;;;;;12.36;54.40;99718.81;5055726;28;20078;-66
2022/09/06 07:38:46;;;;;;;5.45;3.03;;;;;;;12.41;54.73;99714.97;5038050;28;20071;-67
2022/09/06 07:41:11;;;;;;;6.55;3.30;;;;;;;12.86;53.75;99718.50;5056213;28;20410;-66
2022/09/06 07:43:36;;;;;;;2.50;2.30;;;;;;;13.79;51.01;99714.41;5037983;28;20039;-65
2022/09/06 07:46:12;;;;;;;7.32;2.38;;;;;;;14.36;48.58;99713.13;5056457;28;20058;-65
2022/09/06 07:48:40;;;;;;;16.67;2.95;;;;;;;14.68;47.87;99721.09;5038483;28;20470;-65
2022/09/06 07:51:08;;;;;;;3.60;2.08;;;;;;;14.66;46.96;99712.38;5055527;28;20047;-65
2022/09/06 07:53:37;;;;;;;9.63;3.33;;;;;;;14.43;47.44;99711.69;5037098;28;20055;-65
2022/09/06 07:56:05;;;;;;;4.82;2.67;;;;;;;14.11;48.51;99712.53;5036616;28;20067;-65
2022/09/06 07:58:30;;;;;;;7.10;2.80;;;;;;;13.95;49.26;99714.84;5054777;28;20101;-65
2022/09/06 08:01:30;;;;;;;4.78;2.67;;;;;;;14.08;50.44;99715.50;5020354;28;20039;-66
2022/09/06 08:03:57;;;;;;;10.63;3.00;;;;;;;13.93;49.49;99705.22;5054687;28;20040;-65
2022/09/06 08:06:22;;;;;;;5.70;3.30;;;;;;;13.84;49.45;99712.22;5036880;28;20134;-66
2022/09/06 08:08:47;;;;;;;5.88;2.90;;;;;;;13.66;49.41;99711.91;5055297;28;20067;-66
2022/09/06 08:11:12;;;;;;;5.57;2.55;;;;;;;13.43;49.91;99708.44;5054801;28;20082;-71
2022/09/06 08:13:37;;;;;;;7.20;3.22;;;;;;;13.15;50.84;99713.50;5055235;28;20127;-70
2022/09/06 08:16:07;;;;;;;4.25;2.75;;;;;;;12.88;51.19;99711.19;5037217;28;20461;-71
2022/09/06 08:18:33;;;;;;;10.02;3.03;;;;;;;12.63;52.46;99712.31;5054883;28;20050;-71
2022/09/06 08:21:14;;;;;;;3.25;2.58;;;;;;;12.47;52.92;99709.13;5055607;28;20071;-72
2022/09/06 08:23:43;;;;;;;5.88;2.55;;;;;;;12.47;53.71;99701.94;5055693;28;20043;-72
2022/09/06 08:26:08;;;;;;;7.13;2.22;;;;;;;12.99;52.72;99700.47;5054067;28;20093;-73
2022/09/06 08:28:32;;;;;;;6.25;2.22;;;;;;;13.31;51.81;99704.13;5055396;28;20043;-72
2022/09/06 08:31:05;;;;;;;3.15;2.10;;;;;;;13.50;51.08;99702.59;5037239;28;20509;-74
2022/09/06 08:33:30;;;;;;;5.43;2.78;;;;;;;13.47;51.60;99705.53;5055650;28;20562;-72
2022/09/06 08:35:56;;;;;;;6.05;2.08;;;;;;;13.52;50.64;99697.97;5055060;28;20534;-69
2022/09/06 08:38:21;;;;;;;8.30;2.50;;;;;;;13.56;51.04;99702.06;5060845;28;20440;-70
2022/09/06 08:40:46;;;;;;;4.18;2.53;;;;;;;13.62;50.55;99696.22;5055057;28;20112;-70
2022/09/06 08:43:20;;;;;;;5.65;2.03;;;;;;;14.16;49.39;99688.03;5054945;28;20040;-71
2022/09/06 08:45:49;;;;;;;3.00;2.47;;;;;;;14.83;47.84;99690.25;5037323;28;20035;-71
2022/09/06 08:48:14;;;;;;;3.33;2.20;;;;;;;15.12;47.32;99685.00;5042347;28;20055;-68
2022/09/06 08:50:45;;;;;;;5.30;2.15;;;;;;;15.10;47.46;99681.59;5046594;28;20150;-70
2022/09/06 08:53:18;;;;;;;4.65;2.70;;;;;;;15.10;47.91;99690.50;5046201;28;20117;-72
2022/09/06 08:55:49;;;;;;;2.60;2.03;;;;;;;14.92;47.80;99692.13;5050937;28;20095;-73
2022/09/06 08:58:44;;;;;;;4.40;1.88;;;;;;;14.60;48.33;99689.59;5065701;28;20051;-72
2022/09/06 09:01:24;;;;;;;4.95;2.35;;;;;;;14.07;50.36;99694.19;4992119;28;20102;-71
2022/09/06 09:03:51;;;;;;;5.25;2.17;;;;;;;13.77;51.67;99689.56;4976324;28;20504;-72
2022/09/06 09:06:16;;;;;;;3.67;2.22;;;;;;;13.67;51.80;99697.53;4992550;28;20065;-72
2022/09/06 09:09:01;;;;;;;3.03;2.47;;;;;;;13.84;52.59;99693.47;4992592;28;20556;-71
2022/09/06 09:11:28;;;;;;;3.13;2.30;;;;;;;14.28;51.69;99695.03;4992247;28;20049;-72
2022/09/06 09:14:14;;;;;;;2.47;2.08;;;;;;;15.29;49.97;99694.22;4976340;28;20124;-72
2022/09/06 09:16:39;;;;;;;2.67;2.25;;;;;;;15.87;47.41;99689.78;4976227;28;20081;-70
2022/09/06 09:19:05;;;;;;;5.30;1.83;;;;;;;16.30;46.07;99692.81;4992323;28;20132;-72
2022/09/06 09:21:36;;;;;;;3.80;2.33;;;;;;;16.66;45.10;99683.13;4975900;28;20049;-71
2022/09/06 09:24:05;;;;;;;6.25;2.70;;;;;;;17.25;44.39;99681.00;4992834;28;20431;-72
2022/09/06 09:26:40;;;;;;;3.90;2.22;;;;;;;17.90;41.85;99671.75;4991937;28;20057;-73
2022/09/06 09:29:13;;;;;;;4.43;2.70;;;;;;;18.39;41.14;99672.97;4976578;28;20042;-71
2022/09/06 09:31:50;;;;;;;2.67;1.90;;;;;;;18.27;40.21;99674.25;4993660;28;20063;-72
2022/09/06 09:34:30;;;;;;;5.25;3.17;;;;;;;17.96;41.00;99673.81;5054463;28;20123;-71
2022/09/06 09:37:12;;;;;;;5.00;3.42;;;;;;;17.39;42.13;99672.38;5057132;28;20080;-71
2022/09/06 09:39:38;;;;;;;4.93;3.53;;;;;;;16.49;43.08;99670.38;5040200;28;20040;-72
2022/09/06 09:42:04;;;;;;;6.70;2.70;;;;;;;15.82;44.34;99667.81;5040748;28;20055;-72
2022/09/06 09:44:29;;;;;;;7.50;2.78;;;;;;;15.25;45.70;99672.13;5059135;28;20039;-72
2022/09/06 09:46:54;;;;;;;3.80;2.25;;;;;;;14.88;46.80;99672.78;5058402;28;20047;-72
2022/09/06 09:49:27;;;;;;;4.22;2.50;;;;;;;14.65;47.62;99679.31;5057814;28;20048;-72
2022/09/06 09:52:23;;;;;;;10.38;2.90;;;;;;;14.58;48.09;99675.44;5023391;28;20052;-71
2022/09/06 09:54:52;;;;;;;4.80;2.50;;;;;;;14.27;49.12;99665.66;5059509;28;20105;-68
2022/09/06 09:57:17;;;;;;;4.40;3.03;;;;;;;14.05;49.19;99664.81;5060159;28;20040;-69
2022/09/06 09:59:51;;;;;;;3.72;2.47;;;;;;;13.94;49.87;99678.28;5038505;28;20051;-67
2022/09/06 10:02:40;;;;;;;3.47;2.63;;;;;;;13.80;51.72;99676.78;5039044;28;20051;-67
2022/09/06 10:05:08;;;;;;;4.40;2.40;;;;;;;13.41;53.42;99674.75;5039158;28;20047;-67
2022/09/06 10:07:34;;;;;;;4.22;2.35;;;;;;;13.23;54.04;99681.59;5057619;28;20052;-67
2022/09/06 10:10:06;;;;;;;2.58;2.20;;;;;;;13.16;54.61;99680.41;5039809;28;20043;-71
2022/09/06 10:12:32;;;;;;;3.08;2.65;;;;;;;12.99;55.43;99677.25;5040082;28;20114;-71
2022/09/06 10:14:57;;;;;;;4.25;2.35;;;;;;;12.87;55.66;99678.22;5059050;28;20047;-73
2022/09/06 10:17:46;;;;;;;4.78;2.65;;;;;;;12.93;55.91;99668.88;5061357;28;20047;-72
2022/09/06 10:20:11;;;;;;;2.85;1.80;;;;;;;12.77;55.88;99671.91;5067869;28;20081;-72
2022/09/06 10:22:45;;;;;;;2.33;2.13;;;;;;;12.91;55.28;99670.81;5023187;28;20051;-73
2022/09/06 10:25:39;;;;;;;2.67;2.47;;;;;;;13.24;55.29;99662.75;5038717;28;20093;-71
2022/09/06 10:28:22;;;;;;;6.82;2.05;;;;;;;13.61;53.87;99673.09;5039078;28;20089;-71
2022/09/06 10:30:59;;;;;;;4.20;2.88;;;;;;;14.01;52.60;99671.41;5060004;28;20166;-72
2022/09/06 10:33:55;;;;;;;4.18;2.63;;;;;;;14.53;51.47;99666.97;5047815;28;20050;-72
2022/09/06 10:36:28;;;;;;;2.67;2.25;;;;;;;14.90;50.06;99669.91;4995706;28;20147;-71
2022/09/06 10:38:59;;;;;;;2.67;2.43;;;;;;;15.24;49.54;99667.75;4963010;28;20130;-66
2022/09/06 10:41:38;;;;;;;4.75;2.40;;;;;;;15.39;48.15;99663.69;5001228;28;20060;-67
2022/09/06 10:44:13;;;;;;;3.40;2.30;;;;;;;15.45;47.86;99662.28;4983215;28;20056;-67
2022/09/06 10:46:42;;;;;;;3.13;2.58;;;;;;;15.30;48.08;99663.69;5001144;28;20073;-66
2022/09/06 10:49:14;;;;;;;2.47;2.28;;;;;;;15.11;48.36;99670.72;5004928;28;20044;-66
2022/09/06 10:51:48;;;;;;;3.22;2.55;;;;;;;14.90;48.29;99659.19;4999894;28;20045;-68
2022/09/06 10:54:18;;;;;;;5.30;2.70;;;;;;;14.68;48.80;99676.34;4961768;28;20045;-67
2022/09/06 10:56:57;;;;;;;7.93;2.70;;;;;;;14.50;49.33;99672.59;4977909;28;20045;-67
2022/09/06 10:59:48;;;;;;;3.72;2.33;;;;;;;14.24;50.03;99676.66;4977927;28;20471;-67
2022/09/06 11:02:39;;;;;;;5.53;2.58;;;;;;;14.15;50.20;99664.88;4994257;28;20573;-69
2022/09/06 11:05:10;;;;;;;5.18;2.00;;;;;;;14.05;50.08;99659.47;4977766;28;20099;-67
2022/09/06 11:07:40;;;;;;;1.95;1.80;;;;;;;14.02;50.19;99662.41;4977198;28;20053;-68
2022/09/06 11:10:25;;;;;;;4.38;2.10;;;;;;;14.04;49.56;99656.91;4977619;28;20046;-68
2022/09/06 11:13:02;;;;;;;4.13;2.05;;;;;;;14.13;50.11;99665.00;4998326;28;20146;-68
2022/09/06 11:15:36;;;;;;;5.13;2.95;;;;;;;14.06;50.25;99663.00;5038388;28;20054;-68
2022/09/06 11:18:07;;;;;;;3.97;2.33;;;;;;;13.98;50.36;99660.13;5037715;28;20141;-69
2022/09/06 11:20:31;;;;;;;3.75;2.35;;;;;;;13.89;50.34;99667.09;5038051;28;20392;-69
2022/09/06 11:23:08;;;;;;;3.30;1.80;;;;;;;13.89;50.66;99660.88;5037708;28;20453;-69
2022/09/06 11:25:51;;;;;;;4.07;2.40;;;;;;;13.92;50.69;99655.28;5037739;28;20047;-69
2022/09/06 11:28:24;;;;;;;3.53;2.20;;;;;;;13.81;50.24;99657.03;5038186;28;20044;-75
2022/09/06 11:30:55;;;;;;;6.40;3.05;;;;;;;13.84;50.52;99652.41;5055711;28;20051;-74
2022/09/06 11:33:27;;;;;;;5.85;2.40;;;;;;;13.97;49.93;99647.72;5055959;28;20031;-74
2022/09/06 11:36:13;;;;;;;5.68;2.70;;;;;;;14.10;49.46;99645.69;5037490;28;20044;-73
2022/09/06 11:38:38;;;;;;;5.45;2.60;;;;;;;14.16;49.31;99648.66;5056340;28;20066;-74
2022/09/06 11:41:11;;;;;;;6.53;3.08;;;;;;;14.11;49.64;99650.03;5021385;28;20040;-74
2022/09/06 11:43:51;;;;;;;3.35;2.47;;;;;;;14.08;49.97;99639.59;5020920;28;20068;-75
2022/09/06 11:46:34;;;;;;;8.77;2.63;;;;;;;14.14;49.91;99637.22;5056878;28;20048;-74